sensor_id;sensor_type;location;lat;lon;timestamp;temperature;humidity
65235;DHT22;51820;48.374;10.930;2023-03-31T00:06:11;10.70;71.00
65235;DHT22;51820;48.374;10.930;2023-03-31T00:11:19;10.70;70.70
65235;DHT22;51820;48.374;10.930;2023-03-31T00:13:48;10.60;70.80
65235;DHT22;51820;48.374;10.930;2023-03-31T00:21:19;10.60;70.30
65235;DHT22;51820;48.374;10.930;2023-03-31T00:24:00;10.60;70.20
65235;DHT22;51820;48.374;10.930;2023-03-31T00:26:30;10.60;70.20
65235;DHT22;51820;48.374;10.930;2023-03-31T00:29:00;10.60;70.30
65235;DHT22;51820;48.374;10.930;2023-03-31T00:38:59;10.50;70.10
65235;DHT22;51820;48.374;10.930;2023-03-31T00:41:28;10.50;70.20
65235;DHT22;51820;48.374;10.930;2023-03-31T00:44:17;8.40;95.40
65235;DHT22;51820;48.374;10.930;2023-03-31T00:46:52;10.50;70.10
65235;DHT22;51820;48.374;10.930;2023-03-31T00:49:28;8.60;91.20
65235;DHT22;51820;48.374;10.930;2023-03-31T00:52:01;10.50;69.80
65235;DHT22;51820;48.374;10.930;2023-03-31T00:54:34;10.50;70.70
65235;DHT22;51820;48.374;10.930;2023-03-31T00:57:12;10.50;70.10
65235;DHT22;51820;48.374;10.930;2023-03-31T00:59:46;10.50;69.70
65235;DHT22;51820;48.374;10.930;2023-03-31T01:02:17;10.50;69.70
65235;DHT22;51820;48.374;10.930;2023-03-31T01:04:49;10.40;69.60
65235;DHT22;51820;48.374;10.930;2023-03-31T01:07:24;10.40;69.60
65235;DHT22;51820;48.374;10.930;2023-03-31T01:09:57;10.40;69.60
65235;DHT22;51820;48.374;10.930;2023-03-31T01:12:26;10.40;69.70
65235;DHT22;51820;48.374;10.930;2023-03-31T01:14:57;10.40;69.30
65235;DHT22;51820;48.374;10.930;2023-03-31T01:20:04;10.40;69.40
65235;DHT22;51820;48.374;10.930;2023-03-31T01:28:46;13.60;96.30
65235;DHT22;51820;48.374;10.930;2023-03-31T01:31:39;10.40;69.30
65235;DHT22;51820;48.374;10.930;2023-03-31T01:34:46;10.30;69.30
65235;DHT22;51820;48.374;10.930;2023-03-31T01:37:50;10.30;69.30
65235;DHT22;51820;48.374;10.930;2023-03-31T01:40:38;10.30;69.30
65235;DHT22;51820;48.374;10.930;2023-03-31T01:43:17;10.30;69.40
65235;DHT22;51820;48.374;10.930;2023-03-31T01:45:53;10.30;69.40
65235;DHT22;51820;48.374;10.930;2023-03-31T01:48:33;10.30;69.30
65235;DHT22;51820;48.374;10.930;2023-03-31T01:51:06;10.20;69.60
65235;DHT22;51820;48.374;10.930;2023-03-31T01:53:44;10.20;69.50
65235;DHT22;51820;48.374;10.930;2023-03-31T01:56:21;10.20;69.80
65235;DHT22;51820;48.374;10.930;2023-03-31T01:58:55;10.20;70.00
65235;DHT22;51820;48.374;10.930;2023-03-31T02:01:27;10.20;70.00
65235;DHT22;51820;48.374;10.930;2023-03-31T02:04:00;10.20;70.00
65235;DHT22;51820;48.374;10.930;2023-03-31T02:06:35;10.20;70.10
65235;DHT22;51820;48.374;10.930;2023-03-31T02:09:10;10.20;70.00
65235;DHT22;51820;48.374;10.930;2023-03-31T02:11:41;10.20;70.10
65235;DHT22;51820;48.374;10.930;2023-03-31T02:14:13;10.20;70.00
65235;DHT22;51820;48.374;10.930;2023-03-31T02:16:45;10.10;70.10
65235;DHT22;51820;48.374;10.930;2023-03-31T02:19:18;10.10;70.30
65235;DHT22;51820;48.374;10.930;2023-03-31T02:21:48;10.10;70.40
65235;DHT22;51820;48.374;10.930;2023-03-31T02:24:19;10.10;70.40
65235;DHT22;51820;48.374;10.930;2023-03-31T02:26:53;10.10;70.40
65235;DHT22;51820;48.374;10.930;2023-03-31T02:31:55;10.10;70.90
65235;DHT22;51820;48.374;10.930;2023-03-31T02:39:29;10.10;71.80
65235;DHT22;51820;48.374;10.930;2023-03-31T02:42:00;10.10;71.20
65235;DHT22;51820;48.374;10.930;2023-03-31T02:47:02;10.10;71.60
65235;DHT22;51820;48.374;10.930;2023-03-31T02:49:33;10.30;71.80
65235;DHT22;51820;48.374;10.930;2023-03-31T02:52:25;10.40;71.70
65235;DHT22;51820;48.374;10.930;2023-03-31T02:55:17;10.40;72.30
65235;DHT22;51820;48.374;10.930;2023-03-31T02:58:17;10.40;72.60
65235;DHT22;51820;48.374;10.930;2023-03-31T03:01:07;10.40;73.20
65235;DHT22;51820;48.374;10.930;2023-03-31T03:03:51;10.40;73.60
65235;DHT22;51820;48.374;10.930;2023-03-31T03:06:47;10.40;74.00
65235;DHT22;51820;48.374;10.930;2023-03-31T03:09:32;10.40;74.40
65235;DHT22;51820;48.374;10.930;2023-03-31T03:12:09;10.30;97.90
65235;DHT22;51820;48.374;10.930;2023-03-31T03:14:46;10.40;75.40
65235;DHT22;51820;48.374;10.930;2023-03-31T03:17:21;10.40;75.70
65235;DHT22;51820;48.374;10.930;2023-03-31T03:19:53;10.40;76.00
65235;DHT22;51820;48.374;10.930;2023-03-31T03:22:22;10.50;76.40
65235;DHT22;51820;48.374;10.930;2023-03-31T03:29:50;10.50;77.50
65235;DHT22;51820;48.374;10.930;2023-03-31T03:47:11;10.60;78.60
65235;DHT22;51820;48.374;10.930;2023-03-31T03:52:13;10.60;78.80
65235;DHT22;51820;48.374;10.930;2023-03-31T04:04:41;10.60;79.00
65235;DHT22;51820;48.374;10.930;2023-03-31T04:22:01;12.40;99.90
65235;DHT22;51820;48.374;10.930;2023-03-31T04:37:06;10.30;81.20
65235;DHT22;51820;48.374;10.930;2023-03-31T04:47:09;11.40;84.00
65235;DHT22;51820;48.374;10.930;2023-03-31T04:52:07;7.30;80.00
65235;DHT22;51820;48.374;10.930;2023-03-31T04:57:05;10.40;81.50
65235;DHT22;51820;48.374;10.930;2023-03-31T05:09:30;10.40;82.10
65235;DHT22;51820;48.374;10.930;2023-03-31T05:26:55;10.40;82.00
65235;DHT22;51820;48.374;10.930;2023-03-31T05:44:17;10.40;82.30
65235;DHT22;51820;48.374;10.930;2023-03-31T06:01:39;10.60;82.00
65235;DHT22;51820;48.374;10.930;2023-03-31T06:11:33;10.70;81.90
65235;DHT22;51820;48.374;10.930;2023-03-31T06:19:00;10.70;81.60
65235;DHT22;51820;48.374;10.930;2023-03-31T06:36:22;10.70;81.70
65235;DHT22;51820;48.374;10.930;2023-03-31T06:51:25;10.70;82.50
65235;DHT22;51820;48.374;10.930;2023-03-31T07:01:23;10.60;83.20
65235;DHT22;51820;48.374;10.930;2023-03-31T07:08:50;10.60;83.20
65235;DHT22;51820;48.374;10.930;2023-03-31T07:26:14;10.50;84.60
65235;DHT22;51820;48.374;10.930;2023-03-31T07:31:36;10.60;84.40
65235;DHT22;51820;48.374;10.930;2023-03-31T07:39:05;10.60;84.20
65235;DHT22;51820;48.374;10.930;2023-03-31T07:41:34;10.70;84.20
65235;DHT22;51820;48.374;10.930;2023-03-31T07:58:56;10.90;84.60
65235;DHT22;51820;48.374;10.930;2023-03-31T08:06:25;10.90;84.20
65235;DHT22;51820;48.374;10.930;2023-03-31T08:16:22;11.00;83.20
65235;DHT22;51820;48.374;10.930;2023-03-31T08:23:52;11.00;83.00
65235;DHT22;51820;48.374;10.930;2023-03-31T08:31:21;10.90;82.00
65235;DHT22;51820;48.374;10.930;2023-03-31T08:41:30;11.00;80.10
65235;DHT22;51820;48.374;10.930;2023-03-31T08:44:03;11.10;78.70
65235;DHT22;51820;48.374;10.930;2023-03-31T08:46:33;11.10;79.00
65235;DHT22;51820;48.374;10.930;2023-03-31T08:49:06;11.20;79.40
65235;DHT22;51820;48.374;10.930;2023-03-31T08:51:37;11.20;79.40
65235;DHT22;51820;48.374;10.930;2023-03-31T08:54:13;11.30;78.40
65235;DHT22;51820;48.374;10.930;2023-03-31T08:56:46;11.30;77.60
65235;DHT22;51820;48.374;10.930;2023-03-31T08:59:19;11.40;75.90
65235;DHT22;51820;48.374;10.930;2023-03-31T09:01:55;11.40;75.80
65235;DHT22;51820;48.374;10.930;2023-03-31T09:07:32;11.50;75.70
65235;DHT22;51820;48.374;10.930;2023-03-31T09:10:15;15.20;78.20
65235;DHT22;51820;48.374;10.930;2023-03-31T09:12:52;11.60;75.00
65235;DHT22;51820;48.374;10.930;2023-03-31T09:15:25;11.70;74.70
65235;DHT22;51820;48.374;10.930;2023-03-31T09:17:59;11.50;74.10
65235;DHT22;51820;48.374;10.930;2023-03-31T09:20:34;12.00;72.70
65235;DHT22;51820;48.374;10.930;2023-03-31T09:23:10;12.10;72.80
65235;DHT22;51820;48.374;10.930;2023-03-31T09:25:41;12.20;71.80
65235;DHT22;51820;48.374;10.930;2023-03-31T09:28:15;12.30;71.00
65235;DHT22;51820;48.374;10.930;2023-03-31T09:30:49;12.40;71.40
65235;DHT22;51820;48.374;10.930;2023-03-31T09:33:23;12.60;70.60
65235;DHT22;51820;48.374;10.930;2023-03-31T09:40:57;13.40;67.30
65235;DHT22;51820;48.374;10.930;2023-03-31T09:43:28;13.70;66.60
65235;DHT22;51820;48.374;10.930;2023-03-31T09:48:37;14.20;62.90
65235;DHT22;51820;48.374;10.930;2023-03-31T09:51:07;14.50;61.70
65235;DHT22;51820;48.374;10.930;2023-03-31T09:53:46;14.70;61.20
65235;DHT22;51820;48.374;10.930;2023-03-31T09:56:31;14.80;59.60
65235;DHT22;51820;48.374;10.930;2023-03-31T09:59:01;15.00;59.70
65235;DHT22;51820;48.374;10.930;2023-03-31T10:03:59;15.20;58.80
65235;DHT22;51820;48.374;10.930;2023-03-31T10:09:01;15.20;57.30
65235;DHT22;51820;48.374;10.930;2023-03-31T10:14:03;13.50;56.80
65235;DHT22;51820;48.374;10.930;2023-03-31T10:16:33;15.30;58.20
65235;DHT22;51820;48.374;10.930;2023-03-31T10:19:21;15.40;57.60
65235;DHT22;51820;48.374;10.930;2023-03-31T10:21:55;15.60;56.80
65235;DHT22;51820;48.374;10.930;2023-03-31T10:24:35;15.70;55.70
65235;DHT22;51820;48.374;10.930;2023-03-31T10:27:06;15.90;56.30
65235;DHT22;51820;48.374;10.930;2023-03-31T10:32:04;16.10;53.00
65235;DHT22;51820;48.374;10.930;2023-03-31T10:34:41;16.20;52.60
65235;DHT22;51820;48.374;10.930;2023-03-31T10:37:14;16.20;54.60
65235;DHT22;51820;48.374;10.930;2023-03-31T10:39:44;16.30;54.10
65235;DHT22;51820;48.374;10.930;2023-03-31T10:42:20;16.40;52.70
65235;DHT22;51820;48.374;10.930;2023-03-31T10:47:20;16.60;50.40
65235;DHT22;51820;48.374;10.930;2023-03-31T10:49:55;16.60;49.60
65235;DHT22;51820;48.374;10.930;2023-03-31T10:52:26;16.70;49.40
65235;DHT22;51820;48.374;10.930;2023-03-31T10:54:58;16.70;50.20
65235;DHT22;51820;48.374;10.930;2023-03-31T10:57:34;16.60;50.70
65235;DHT22;51820;48.374;10.930;2023-03-31T11:00:13;16.50;49.10
65235;DHT22;51820;48.374;10.930;2023-03-31T11:03:13;16.30;48.60
65235;DHT22;51820;48.374;10.930;2023-03-31T11:05:49;16.10;49.80
65235;DHT22;51820;48.374;10.930;2023-03-31T11:08:41;16.00;50.20
65235;DHT22;51820;48.374;10.930;2023-03-31T11:11:26;15.90;50.50
65235;DHT22;51820;48.374;10.930;2023-03-31T11:14:23;15.80;52.30
65235;DHT22;51820;48.374;10.930;2023-03-31T11:17:01;15.70;50.40
65235;DHT22;51820;48.374;10.930;2023-03-31T11:19:43;15.70;50.00
65235;DHT22;51820;48.374;10.930;2023-03-31T11:22:21;15.70;49.60
65235;DHT22;51820;48.374;10.930;2023-03-31T11:25:07;15.60;50.30
65235;DHT22;51820;48.374;10.930;2023-03-31T11:28:00;15.70;50.00
65235;DHT22;51820;48.374;10.930;2023-03-31T11:30:36;15.70;50.30
65235;DHT22;51820;48.374;10.930;2023-03-31T11:33:48;15.70;49.80
65235;DHT22;51820;48.374;10.930;2023-03-31T11:36:42;15.70;50.00
65235;DHT22;51820;48.374;10.930;2023-03-31T11:44:07;12.40;55.10
65235;DHT22;51820;48.374;10.930;2023-03-31T11:47:17;16.10;51.60
65235;DHT22;51820;48.374;10.930;2023-03-31T11:50:08;14.70;51.50
65235;DHT22;51820;48.374;10.930;2023-03-31T11:52:52;16.70;49.70
65235;DHT22;51820;48.374;10.930;2023-03-31T11:55:49;17.10;47.50
65235;DHT22;51820;48.374;10.930;2023-03-31T11:58:23;17.30;45.50
65235;DHT22;51820;48.374;10.930;2023-03-31T12:00:59;17.30;45.10
65235;DHT22;51820;48.374;10.930;2023-03-31T12:07:55;17.30;46.10
65235;DHT22;51820;48.374;10.930;2023-03-31T12:10:33;17.50;45.60
65235;DHT22;51820;48.374;10.930;2023-03-31T12:13:13;17.70;46.00
65235;DHT22;51820;48.374;10.930;2023-03-31T12:15:53;18.20;47.10
65235;DHT22;51820;48.374;10.930;2023-03-31T12:19:20;18.60;43.60
65235;DHT22;51820;48.374;10.930;2023-03-31T12:21:52;18.90;43.10
65235;DHT22;51820;48.374;10.930;2023-03-31T12:26:59;18.60;41.50
65235;DHT22;51820;48.374;10.930;2023-03-31T12:29:32;18.40;41.60
65235;DHT22;51820;48.374;10.930;2023-03-31T12:32:05;18.20;42.80
65235;DHT22;51820;48.374;10.930;2023-03-31T12:34:37;18.00;43.00
65235;DHT22;51820;48.374;10.930;2023-03-31T12:40:13;17.50;42.50
65235;DHT22;51820;48.374;10.930;2023-03-31T12:42:59;15.00;45.20
65235;DHT22;51820;48.374;10.930;2023-03-31T12:45:32;17.10;44.10
65235;DHT22;51820;48.374;10.930;2023-03-31T12:48:35;17.10;68.70
65235;DHT22;51820;48.374;10.930;2023-03-31T12:51:21;14.70;68.20
65235;DHT22;51820;48.374;10.930;2023-03-31T12:54:04;16.40;46.20
65235;DHT22;51820;48.374;10.930;2023-03-31T12:57:11;16.20;47.40
65235;DHT22;51820;48.374;10.930;2023-03-31T12:59:43;16.00;48.60
65235;DHT22;51820;48.374;10.930;2023-03-31T13:02:24;15.90;50.30
65235;DHT22;51820;48.374;10.930;2023-03-31T13:04:55;15.80;51.50
65235;DHT22;51820;48.374;10.930;2023-03-31T13:07:40;15.60;50.40
65235;DHT22;51820;48.374;10.930;2023-03-31T13:10:27;15.40;49.90
65235;DHT22;51820;48.374;10.930;2023-03-31T13:13:02;20.70;61.00
65235;DHT22;51820;48.374;10.930;2023-03-31T13:15:32;15.00;50.30
65235;DHT22;51820;48.374;10.930;2023-03-31T13:21:16;14.70;51.50
65235;DHT22;51820;48.374;10.930;2023-03-31T13:23:46;14.70;51.70
65235;DHT22;51820;48.374;10.930;2023-03-31T13:26:40;14.70;51.10
65235;DHT22;51820;48.374;10.930;2023-03-31T13:29:41;14.70;51.20
65235;DHT22;51820;48.374;10.930;2023-03-31T13:32:22;14.70;52.10
65235;DHT22;51820;48.374;10.930;2023-03-31T13:34:58;14.90;53.70
65235;DHT22;51820;48.374;10.930;2023-03-31T13:37:52;15.00;51.90
65235;DHT22;51820;48.374;10.930;2023-03-31T13:40:53;11.90;82.00
65235;DHT22;51820;48.374;10.930;2023-03-31T13:46:46;15.20;49.80
65235;DHT22;51820;48.374;10.930;2023-03-31T13:49:48;19.30;82.00
65235;DHT22;51820;48.374;10.930;2023-03-31T13:52:32;15.30;50.00
65235;DHT22;51820;48.374;10.930;2023-03-31T13:55:16;15.40;49.20
65235;DHT22;51820;48.374;10.930;2023-03-31T13:59:35;15.40;49.10
65235;DHT22;51820;48.374;10.930;2023-03-31T14:01:50;15.40;49.10
65235;DHT22;51820;48.374;10.930;2023-03-31T14:07:33;15.40;48.40
65235;DHT22;51820;48.374;10.930;2023-03-31T14:10:04;15.30;48.30
65235;DHT22;51820;48.374;10.930;2023-03-31T14:12:35;15.30;48.20
65235;DHT22;51820;48.374;10.930;2023-03-31T14:15:06;15.20;49.20
65235;DHT22;51820;48.374;10.930;2023-03-31T14:20:23;15.10;47.70
65235;DHT22;51820;48.374;10.930;2023-03-31T14:23:00;15.10;47.70
65235;DHT22;51820;48.374;10.930;2023-03-31T14:25:39;15.00;48.50
65235;DHT22;51820;48.374;10.930;2023-03-31T14:28:23;15.00;47.90
65235;DHT22;51820;48.374;10.930;2023-03-31T14:31:06;14.90;48.50
65235;DHT22;51820;48.374;10.930;2023-03-31T14:34:07;14.90;48.60
65235;DHT22;51820;48.374;10.930;2023-03-31T14:36:46;14.90;48.10
65235;DHT22;51820;48.374;10.930;2023-03-31T14:39:19;14.80;47.40
65235;DHT22;51820;48.374;10.930;2023-03-31T14:41:51;14.70;48.60
65235;DHT22;51820;48.374;10.930;2023-03-31T14:44:22;14.60;50.30
65235;DHT22;51820;48.374;10.930;2023-03-31T14:50:12;14.20;57.80
65235;DHT22;51820;48.374;10.930;2023-03-31T14:52:48;14.10;57.80
65235;DHT22;51820;48.374;10.930;2023-03-31T14:55:32;14.10;58.40
65235;DHT22;51820;48.374;10.930;2023-03-31T15:01:17;14.00;60.00
65235;DHT22;51820;48.374;10.930;2023-03-31T15:04:10;14.00;63.70
65235;DHT22;51820;48.374;10.930;2023-03-31T15:06:44;14.10;58.70
65235;DHT22;51820;48.374;10.930;2023-03-31T15:09:18;14.10;57.80
65235;DHT22;51820;48.374;10.930;2023-03-31T15:11:53;14.10;56.80
65235;DHT22;51820;48.374;10.930;2023-03-31T15:14:28;14.10;56.00
65235;DHT22;51820;48.374;10.930;2023-03-31T15:16:58;14.00;55.00
65235;DHT22;51820;48.374;10.930;2023-03-31T15:19:41;14.00;54.10
65235;DHT22;51820;48.374;10.930;2023-03-31T15:23:45;16.80;55.60
65235;DHT22;51820;48.374;10.930;2023-03-31T15:25:41;14.00;53.40
65235;DHT22;51820;48.374;10.930;2023-03-31T15:28:12;14.00;51.70
65235;DHT22;51820;48.374;10.930;2023-03-31T15:30:48;14.00;51.70
65235;DHT22;51820;48.374;10.930;2023-03-31T15:33:35;13.90;50.60
65235;DHT22;51820;48.374;10.930;2023-03-31T15:41:10;13.80;49.80
65235;DHT22;51820;48.374;10.930;2023-03-31T15:43:45;13.70;51.10
65235;DHT22;51820;48.374;10.930;2023-03-31T15:46:18;13.70;51.70
65235;DHT22;51820;48.374;10.930;2023-03-31T15:48:53;13.60;51.80
65235;DHT22;51820;48.374;10.930;2023-03-31T15:51:24;13.40;52.30
65235;DHT22;51820;48.374;10.930;2023-03-31T15:54:33;12.60;52.80
65235;DHT22;51820;48.374;10.930;2023-03-31T15:57:03;13.40;53.10
65235;DHT22;51820;48.374;10.930;2023-03-31T15:59:43;13.30;53.00
65235;DHT22;51820;48.374;10.930;2023-03-31T16:02:19;13.30;53.80
65235;DHT22;51820;48.374;10.930;2023-03-31T16:04:54;13.30;54.10
65235;DHT22;51820;48.374;10.930;2023-03-31T16:07:25;13.40;53.80
65235;DHT22;51820;48.374;10.930;2023-03-31T16:10:14;13.40;54.50
65235;DHT22;51820;48.374;10.930;2023-03-31T16:13:11;13.30;54.70
65235;DHT22;51820;48.374;10.930;2023-03-31T16:15:48;13.40;54.20
65235;DHT22;51820;48.374;10.930;2023-03-31T16:18:25;13.40;54.10
65235;DHT22;51820;48.374;10.930;2023-03-31T16:24:10;13.20;57.60
65235;DHT22;51820;48.374;10.930;2023-03-31T16:26:41;13.20;59.30
65235;DHT22;51820;48.374;10.930;2023-03-31T16:29:20;14.50;58.60
65235;DHT22;51820;48.374;10.930;2023-03-31T16:32:17;13.00;57.60
65235;DHT22;51820;48.374;10.930;2023-03-31T16:34:56;12.90;57.40
65235;DHT22;51820;48.374;10.930;2023-03-31T16:37:30;12.80;57.60
65235;DHT22;51820;48.374;10.930;2023-03-31T16:52:42;12.60;58.90
65235;DHT22;51820;48.374;10.930;2023-03-31T17:07:48;12.20;59.80
65235;DHT22;51820;48.374;10.930;2023-03-31T17:25:19;11.70;62.30
65235;DHT22;51820;48.374;10.930;2023-03-31T17:32:57;11.50;63.10
65235;DHT22;51820;48.374;10.930;2023-03-31T17:40:40;11.40;63.10
65235;DHT22;51820;48.374;10.930;2023-03-31T17:43:16;11.40;63.50
65235;DHT22;51820;48.374;10.930;2023-03-31T17:45:59;11.40;62.30
65235;DHT22;51820;48.374;10.930;2023-03-31T17:51:07;13.50;63.30
65235;DHT22;51820;48.374;10.930;2023-03-31T17:53:40;11.30;61.90
65235;DHT22;51820;48.374;10.930;2023-03-31T17:56:11;11.40;61.90
65235;DHT22;51820;48.374;10.930;2023-03-31T17:59:10;11.40;68.90
65235;DHT22;51820;48.374;10.930;2023-03-31T18:02:10;11.30;64.70
65235;DHT22;51820;48.374;10.930;2023-03-31T18:05:44;11.30;63.00
65235;DHT22;51820;48.374;10.930;2023-03-31T18:09:02;11.20;62.30
65235;DHT22;51820;48.374;10.930;2023-03-31T18:11:39;11.20;63.30
65235;DHT22;51820;48.374;10.930;2023-03-31T18:14:54;11.20;64.40
65235;DHT22;51820;48.374;10.930;2023-03-31T18:17:31;8.90;61.60
65235;DHT22;51820;48.374;10.930;2023-03-31T18:22:14;11.00;65.20
65235;DHT22;51820;48.374;10.930;2023-03-31T18:23:24;11.20;64.30
65235;DHT22;51820;48.374;10.930;2023-03-31T18:26:48;11.10;64.50
65235;DHT22;51820;48.374;10.930;2023-03-31T18:29:58;11.10;63.30
65235;DHT22;51820;48.374;10.930;2023-03-31T18:34:25;13.80;65.20
65235;DHT22;51820;48.374;10.930;2023-03-31T18:36:33;10.90;64.50
65235;DHT22;51820;48.374;10.930;2023-03-31T18:40:08;10.90;64.00
65235;DHT22;51820;48.374;10.930;2023-03-31T18:43:35;11.00;64.40
65235;DHT22;51820;48.374;10.930;2023-03-31T18:46:35;10.80;64.30
65235;DHT22;51820;48.374;10.930;2023-03-31T18:49:32;9.20;63.70
65235;DHT22;51820;48.374;10.930;2023-03-31T18:52:09;10.80;64.30
65235;DHT22;51820;48.374;10.930;2023-03-31T18:55:08;10.70;67.00
65235;DHT22;51820;48.374;10.930;2023-03-31T18:58:07;10.70;66.90
65235;DHT22;51820;48.374;10.930;2023-03-31T19:01:05;10.70;64.40
65235;DHT22;51820;48.374;10.930;2023-03-31T19:04:26;10.60;66.60
65235;DHT22;51820;48.374;10.930;2023-03-31T19:06:59;10.60;65.80
65235;DHT22;51820;48.374;10.930;2023-03-31T19:15:14;10.60;64.20
65235;DHT22;51820;48.374;10.930;2023-03-31T19:18:07;10.50;65.40
65235;DHT22;51820;48.374;10.930;2023-03-31T19:21:40;5.90;65.10
65235;DHT22;51820;48.374;10.930;2023-03-31T19:26:52;13.80;66.20
65235;DHT22;51820;48.374;10.930;2023-03-31T19:30:04;10.50;65.00
65235;DHT22;51820;48.374;10.930;2023-03-31T19:35:07;9.10;64.40
65235;DHT22;51820;48.374;10.930;2023-03-31T19:40:15;10.30;68.30
65235;DHT22;51820;48.374;10.930;2023-03-31T19:43:21;10.30;64.30
65235;DHT22;51820;48.374;10.930;2023-03-31T19:46:09;10.30;64.10
65235;DHT22;51820;48.374;10.930;2023-03-31T19:51:20;10.30;64.30
65235;DHT22;51820;48.374;10.930;2023-03-31T19:59:17;10.40;63.80
65235;DHT22;51820;48.374;10.930;2023-03-31T20:01:49;9.40;71.00
65235;DHT22;51820;48.374;10.930;2023-03-31T20:04:34;10.40;64.30
65235;DHT22;51820;48.374;10.930;2023-03-31T20:07:26;10.40;63.80
65235;DHT22;51820;48.374;10.930;2023-03-31T20:12:30;10.40;63.10
65235;DHT22;51820;48.374;10.930;2023-03-31T20:22:41;10.50;62.00
65235;DHT22;51820;48.374;10.930;2023-03-31T20:33:12;10.60;64.90
65235;DHT22;51820;48.374;10.930;2023-03-31T20:36:13;10.60;61.40
65235;DHT22;51820;48.374;10.930;2023-03-31T20:39:12;10.60;61.20
65235;DHT22;51820;48.374;10.930;2023-03-31T20:44:13;10.60;61.00
65235;DHT22;51820;48.374;10.930;2023-03-31T20:54:13;10.60;60.40
65235;DHT22;51820;48.374;10.930;2023-03-31T21:06:57;10.70;60.40
65235;DHT22;51820;48.374;10.930;2023-03-31T21:09:28;10.60;60.20
65235;DHT22;51820;48.374;10.930;2023-03-31T21:16:58;10.60;62.20
65235;DHT22;51820;48.374;10.930;2023-03-31T21:21:59;10.50;60.60
65235;DHT22;51820;48.374;10.930;2023-03-31T21:24:28;10.50;61.40
65235;DHT22;51820;48.374;10.930;2023-03-31T21:41:48;9.00;60.00
65235;DHT22;51820;48.374;10.930;2023-03-31T21:57:15;10.40;61.20
65235;DHT22;51820;48.374;10.930;2023-03-31T22:14:41;10.20;61.80
65235;DHT22;51820;48.374;10.930;2023-03-31T22:32:03;10.20;62.90
65235;DHT22;51820;48.374;10.930;2023-03-31T22:49:23;10.00;64.60
65235;DHT22;51820;48.374;10.930;2023-03-31T22:51:52;10.00;65.20
65235;DHT22;51820;48.374;10.930;2023-03-31T23:04:20;9.90;65.40
65235;DHT22;51820;48.374;10.930;2023-03-31T23:06:50;9.90;65.30
65235;DHT22;51820;48.374;10.930;2023-03-31T23:24:11;9.80;64.50
65235;DHT22;51820;48.374;10.930;2023-03-31T23:41:33;9.80;65.00
65235;DHT22;51820;48.374;10.930;2023-03-31T23:58:55;9.70;65.40
